Time;durP1;ratioP1;P1;durP2;ratioP2;P2;SDS_P1;SDS_P2;PMS_P1;PMS_P2;Temp;Humidity;BMP_temperature;BMP_pressure;BME280_temperature;BME280_humidity;BME280_pressure;Samples;Min_cycle;Max_cycle;Signal;HPM_P1;HPM_P2
2023/10/01 00:01:41;;;;;;;3.50;2.60;;;20.30;65.40;;;;;;5041542;28;20557;-49
2023/10/01 00:04:10;;;;;;;3.73;2.70;;;20.30;65.30;;;;;;5038897;28;20529;-49
2023/10/01 00:06:38;;;;;;;3.87;3.57;;;20.20;65.20;;;;;;5035327;28;20491;-49
2023/10/01 00:09:07;;;;;;;3.77;3.17;;;20.20;65.20;;;;;;5044111;28;20427;-51
2023/10/01 00:11:38;;;;;;;2.80;2.50;;;20.20;65.20;;;;;;5035888;28;20468;-51
2023/10/01 00:14:08;;;;;;;4.60;3.53;;;20.20;65.20;;;;;;5038664;28;20453;-49
2023/10/01 00:16:54;;;;;;;3.57;3.20;;;20.20;65.30;;;;;;5037170;28;20882;-49
2023/10/01 00:19:22;;;;;;;3.20;2.90;;;20.20;65.20;;;;;;5040557;28;20817;-49
2023/10/01 00:21:50;;;;;;;4.07;3.00;;;20.20;65.20;;;;;;5036498;28;20558;-49
2023/10/01 00:24:19;;;;;;;4.03;2.90;;;20.20;65.20;;;;;;5041812;28;20530;-49
2023/10/01 00:26:48;;;;;;;5.80;2.40;;;20.20;65.20;;;;;;5040927;28;20749;-50
2023/10/01 00:29:16;;;;;;;3.00;2.70;;;20.20;65.30;;;;;;5041006;28;20796;-49
2023/10/01 00:31:45;;;;;;;4.60;3.40;;;20.20;65.30;;;;;;5037237;28;20475;-50
2023/10/01 00:34:14;;;;;;;4.37;2.80;;;20.20;65.20;;;;;;5040893;28;20451;-50
2023/10/01 00:36:43;;;;;;;3.90;3.10;;;20.20;65.30;;;;;;5040798;28;20459;-49
2023/10/01 00:39:12;;;;;;;3.37;2.60;;;20.20;65.30;;;;;;5044778;28;20792;-49
2023/10/01 00:41:40;;;;;;;2.77;2.40;;;20.20;65.30;;;;;;5044860;28;20802;-48
2023/10/01 00:44:10;;;;;;;3.23;2.33;;;20.20;65.20;;;;;;5041744;28;20451;-49
2023/10/01 00:46:38;;;;;;;4.17;2.90;;;20.20;65.30;;;;;;5042145;28;20474;-49
2023/10/01 00:49:08;;;;;;;3.30;2.60;;;20.20;65.30;;;;;;5040883;28;21058;-49
2023/10/01 00:51:36;;;;;;;4.97;3.50;;;20.10;65.20;;;;;;5038209;28;20559;-51
2023/10/01 00:54:05;;;;;;;2.73;2.50;;;20.20;65.30;;;;;;5039670;28;20507;-49
2023/10/01 00:56:34;;;;;;;3.10;2.77;;;20.20;65.30;;;;;;5044197;28;20456;-51
2023/10/01 00:59:03;;;;;;;2.43;2.23;;;20.10;65.20;;;;;;5039055;28;20439;-49
2023/10/01 01:01:33;;;;;;;3.70;2.97;;;20.10;65.20;;;;;;5038171;28;20845;-50
2023/10/01 01:04:07;;;;;;;2.57;2.37;;;20.10;65.20;;;;;;5039072;28;21008;-50
2023/10/01 01:06:39;;;;;;;2.93;2.70;;;20.10;65.10;;;;;;5040247;28;20976;-50
2023/10/01 01:09:11;;;;;;;6.20;3.23;;;20.10;65.20;;;;;;5039358;28;20435;-50
2023/10/01 01:11:40;;;;;;;3.30;2.53;;;20.10;65.10;;;;;;5048405;28;20489;-48
2023/10/01 01:14:09;;;;;;;2.80;2.37;;;20.10;65.10;;;;;;5048794;28;20467;-49
2023/10/01 01:16:40;;;;;;;3.57;3.00;;;20.10;65.10;;;;;;5045992;28;20524;-50
2023/10/01 01:19:10;;;;;;;3.30;2.53;;;20.10;65.20;;;;;;5046113;28;20441;-49
2023/10/01 01:21:42;;;;;;;3.20;2.50;;;20.10;65.20;;;;;;5042351;28;20559;-49
2023/10/01 01:24:11;;;;;;;3.00;2.47;;;20.10;65.20;;;;;;5033953;28;21014;-49
2023/10/01 01:26:43;;;;;;;2.67;2.20;;;20.10;65.30;;;;;;5030787;28;20486;-48
2023/10/01 01:29:18;;;;;;;3.63;2.33;;;20.10;65.20;;;;;;5025461;28;20953;-48
2023/10/01 01:31:46;;;;;;;2.80;2.27;;;20.10;65.20;;;;;;5025117;28;20688;-49
2023/10/01 01:34:15;;;;;;;4.17;2.47;;;20.10;65.30;;;;;;5027262;28;20504;-49
2023/10/01 01:36:43;;;;;;;2.47;2.27;;;20.10;65.20;;;;;;5022379;28;20479;-49
2023/10/01 01:39:27;;;;;;;4.20;3.00;;;20.10;65.20;;;;;;5026087;28;20984;-51
2023/10/01 01:41:57;;;;;;;3.27;2.47;;;20.10;65.10;;;;;;5026292;28;20456;-49
2023/10/01 01:44:25;;;;;;;3.30;2.70;;;20.10;65.30;;;;;;5021621;28;20463;-49
2023/10/01 01:47:00;;;;;;;3.70;3.07;;;20.10;65.20;;;;;;5024818;28;20498;-49
2023/10/01 01:49:29;;;;;;;3.67;2.57;;;20.10;65.20;;;;;;5010227;28;20435;-49
2023/10/01 01:52:03;;;;;;;4.57;2.70;;;20.00;65.20;;;;;;5023184;28;20477;-49
2023/10/01 01:54:34;;;;;;;2.90;2.37;;;20.10;65.20;;;;;;5041102;28;20490;-50
2023/10/01 01:57:03;;;;;;;3.03;2.83;;;20.00;65.10;;;;;;5039227;28;20481;-50
2023/10/01 01:59:31;;;;;;;2.50;2.10;;;20.00;65.20;;;;;;5026488;28;20421;-50
2023/10/01 02:02:00;;;;;;;4.00;2.53;;;20.00;65.10;;;;;;5039937;28;20463;-48
2023/10/01 02:04:29;;;;;;;2.80;1.97;;;20.00;65.60;;;;;;5045595;28;20508;-49
2023/10/01 02:06:57;;;;;;;2.83;2.50;;;20.00;65.20;;;;;;5034099;28;20514;-50
2023/10/01 02:09:25;;;;;;;4.33;2.80;;;20.00;65.20;;;;;;5025038;28;20451;-50
2023/10/01 02:11:57;;;;;;;3.20;2.50;;;20.00;65.20;;;;;;5035251;28;20534;-49
2023/10/01 02:14:31;;;;;;;4.30;3.00;;;20.00;65.20;;;;;;5036990;28;20448;-50
2023/10/01 02:17:13;;;;;;;2.70;2.10;;;20.00;65.20;;;;;;5031158;28;20885;-49
2023/10/01 02:19:46;;;;;;;3.20;2.27;;;20.00;65.30;;;;;;5012032;28;20429;-50
2023/10/01 02:22:16;;;;;;;2.80;2.50;;;20.00;65.20;;;;;;5023476;28;20550;-48
2023/10/01 02:24:55;;;;;;;2.70;2.20;;;20.00;65.30;;;;;;5040111;28;20809;-48
2023/10/01 02:27:26;;;;;;;3.57;2.40;;;20.00;65.20;;;;;;5044035;28;20512;-49
2023/10/01 02:30:13;;;;;;;3.30;2.63;;;20.00;65.20;;;;;;5042989;28;20821;-49
2023/10/01 02:33:15;;;;;;;3.33;2.70;;;20.00;65.20;;;;;;5052199;28;20464;-50
2023/10/01 02:35:41;;;;;;;2.43;2.20;;;20.00;65.20;;;;;;5042604;28;20813;-49
2023/10/01 02:40:57;;;;;;;2.93;2.63;;;19.90;65.00;;;;;;5042834;28;20522;-49
2023/10/01 02:43:33;;;;;;;3.23;2.90;;;19.90;65.10;;;;;;5030691;28;20521;-49
2023/10/01 02:46:04;;;;;;;2.50;2.30;;;19.90;65.10;;;;;;5028833;28;20936;-52
2023/10/01 02:48:32;;;;;;;4.90;2.87;;;19.90;65.20;;;;;;5041161;28;20446;-50
2023/10/01 02:51:14;;;;;;;3.80;2.73;;;19.90;64.90;;;;;;5006148;28;20449;-49
2023/10/01 02:53:42;;;;;;;3.67;2.70;;;19.90;65.00;;;;;;5061813;28;20446;-50
2023/10/01 02:56:12;;;;;;;3.47;2.70;;;19.90;65.20;;;;;;5054277;28;20433;-49
2023/10/01 02:58:49;;;;;;;2.53;2.33;;;19.90;65.10;;;;;;5061051;28;20422;-49
2023/10/01 03:01:19;;;;;;;3.23;2.67;;;19.90;65.00;;;;;;5045779;28;20986;-50
2023/10/01 03:03:48;;;;;;;2.43;2.23;;;19.90;65.10;;;;;;5045220;28;20451;-49
2023/10/01 03:06:16;;;;;;;2.77;2.43;;;19.90;65.00;;;;;;5038600;28;20447;-50
2023/10/01 03:09:04;;;;;;;2.43;2.20;;;19.90;65.00;;;;;;5037695;28;20432;-49
2023/10/01 03:11:41;;;;;;;2.57;2.30;;;19.90;65.00;;;;;;5039815;28;20479;-51
2023/10/01 03:14:19;;;;;;;2.80;2.23;;;19.80;64.90;;;;;;5027675;28;20833;-49
2023/10/01 03:16:54;;;;;;;2.83;2.10;;;19.90;65.00;;;;;;5035224;28;20467;-49
2023/10/01 03:19:25;;;;;;;3.50;2.63;;;19.80;64.80;;;;;;5046389;28;20449;-50
2023/10/01 03:24:43;;;;;;;2.73;2.10;;;19.80;64.90;;;;;;5053380;28;20445;-49
2023/10/01 03:27:20;;;;;;;2.80;2.33;;;19.80;64.80;;;;;;5062097;28;20462;-48
2023/10/01 03:30:00;;;;;;;2.93;2.67;;;19.80;66.00;;;;;;5055517;28;20440;-50
2023/10/01 03:32:32;;;;;;;5.40;3.17;;;19.80;64.90;;;;;;5048191;28;20848;-48
2023/10/01 03:35:08;;;;;;;2.93;2.03;;;19.80;65.00;;;;;;5051842;28;20450;-49
2023/10/01 03:37:39;;;;;;;4.20;3.07;;;19.80;65.00;;;;;;5046805;28;21022;-50
2023/10/01 03:40:18;;;;;;;2.63;2.00;;;19.80;64.90;;;;;;5047855;28;20443;-50
2023/10/01 03:42:51;;;;;;;2.63;2.10;;;19.80;64.90;;;;;;5050670;28;20463;-49
2023/10/01 03:45:52;;;;;;;3.13;2.50;;;19.80;65.00;;;;;;5045648;28;20451;-49
2023/10/01 03:48:20;;;;;;;3.77;2.87;;;19.80;65.00;;;;;;5043354;28;20495;-51
2023/10/01 03:50:50;;;;;;;2.77;2.30;;;19.80;65.00;;;;;;5021236;28;20440;-50
2023/10/01 03:53:19;;;;;;;3.20;2.77;;;19.80;64.80;;;;;;5047341;28;20486;-50
2023/10/01 03:55:54;;;;;;;2.97;2.30;;;19.80;64.90;;;;;;5020937;28;21113;-49
2023/10/01 03:58:27;;;;;;;2.90;2.40;;;19.80;64.90;;;;;;5038225;28;20836;-50
2023/10/01 04:01:09;;;;;;;4.20;2.70;;;19.80;64.90;;;;;;5041433;28;20474;-49
2023/10/01 04:03:42;;;;;;;3.30;2.60;;;19.70;64.90;;;;;;5048423;28;20571;-49
2023/10/01 04:06:12;;;;;;;3.30;2.57;;;19.80;65.00;;;;;;5042175;28;20435;-51
2023/10/01 04:08:44;;;;;;;3.27;2.60;;;19.70;65.00;;;;;;5042573;28;20754;-52
2023/10/01 04:11:15;;;;;;;3.70;2.80;;;19.70;64.90;;;;;;5047433;28;20523;-51
2023/10/01 04:13:43;;;;;;;3.27;2.67;;;19.70;65.00;;;;;;5046160;28;20567;-51
2023/10/01 04:16:15;;;;;;;3.17;2.60;;;19.70;64.90;;;;;;5043785;28;20730;-50
2023/10/01 04:18:43;;;;;;;3.10;2.27;;;19.70;64.90;;;;;;5043196;28;20481;-50
2023/10/01 04:21:25;;;;;;;3.70;3.10;;;19.70;64.90;;;;;;5040839;28;20443;-49
2023/10/01 04:23:54;;;;;;;3.47;2.80;;;19.70;64.90;;;;;;5046424;28;20447;-50
2023/10/01 04:26:23;;;;;;;5.20;3.47;;;19.70;65.00;;;;;;5042388;28;20455;-49
2023/10/01 04:28:54;;;;;;;4.83;3.10;;;19.70;64.70;;;;;;5044292;28;20812;-49
2023/10/01 04:34:10;;;;;;;3.77;2.73;;;19.70;64.90;;;;;;5041988;28;20482;-53
2023/10/01 04:36:39;;;;;;;3.97;2.47;;;19.70;65.00;;;;;;5042169;28;20459;-49
2023/10/01 04:39:07;;;;;;;3.97;3.07;;;19.70;65.10;;;;;;5043227;28;20452;-50
2023/10/01 04:41:37;;;;;;;4.43;2.97;;;19.70;64.80;;;;;;5040035;28;20467;-49
2023/10/01 04:44:13;;;;;;;4.03;2.73;;;19.60;64.90;;;;;;5038057;28;21047;-49
2023/10/01 04:46:45;;;;;;;3.17;2.40;;;19.60;65.00;;;;;;5045733;28;20489;-50
2023/10/01 04:49:27;;;;;;;4.03;2.80;;;19.60;64.90;;;;;;5046789;28;20928;-49
2023/10/01 04:52:10;;;;;;;4.67;3.47;;;19.60;64.80;;;;;;5038427;28;20480;-49
2023/10/01 04:54:44;;;;;;;2.87;2.40;;;19.60;64.80;;;;;;5046414;28;20455;-50
2023/10/01 04:57:13;;;;;;;3.63;2.90;;;19.60;64.90;;;;;;5046205;28;20473;-49
2023/10/01 04:59:56;;;;;;;3.80;2.40;;;19.60;65.00;;;;;;5043335;28;20431;-49
2023/10/01 05:02:29;;;;;;;6.50;3.37;;;19.60;64.90;;;;;;5039858;28;20455;-50
2023/10/01 05:05:09;;;;;;;3.60;2.77;;;19.60;64.90;;;;;;5027393;28;20489;-49
2023/10/01 05:07:39;;;;;;;4.50;3.03;;;19.60;65.00;;;;;;5031374;28;20471;-49
2023/10/01 05:10:09;;;;;;;3.40;2.30;;;19.60;64.80;;;;;;5045204;28;20463;-49
2023/10/01 05:12:43;;;;;;;3.30;2.50;;;19.60;65.10;;;;;;5039030;28;21062;-49
2023/10/01 05:15:21;;;;;;;2.70;2.50;;;19.60;65.10;;;;;;5034923;28;21903;-50
2023/10/01 05:17:55;;;;;;;4.80;3.03;;;19.60;64.90;;;;;;5043147;28;20459;-51
2023/10/01 05:20:26;;;;;;;6.80;3.40;;;19.50;64.70;;;;;;5041105;28;20427;-49
2023/10/01 05:22:57;;;;;;;4.03;2.90;;;19.50;64.60;;;;;;5045019;28;20478;-49
2023/10/01 05:25:26;;;;;;;4.23;3.33;;;19.50;64.70;;;;;;5045011;28;20737;-49
2023/10/01 05:27:58;;;;;;;2.87;2.20;;;19.50;64.90;;;;;;5044330;28;20494;-50
2023/10/01 05:30:38;;;;;;;3.57;2.70;;;19.50;64.80;;;;;;5044850;28;20440;-50
2023/10/01 05:33:11;;;;;;;2.70;2.37;;;19.60;65.00;;;;;;5042376;28;20858;-49
2023/10/01 05:35:43;;;;;;;3.20;2.43;;;19.50;64.90;;;;;;5041225;28;20446;-49
2023/10/01 05:38:14;;;;;;;3.80;2.90;;;19.50;65.00;;;;;;5042901;28;20494;-49
2023/10/01 05:40:44;;;;;;;3.63;2.70;;;19.50;65.00;;;;;;5045859;28;21600;-49
2023/10/01 05:43:13;;;;;;;3.37;2.73;;;19.50;64.80;;;;;;5014143;28;20992;-48
2023/10/01 05:45:44;;;;;;;3.40;3.10;;;19.50;64.90;;;;;;5042244;28;20520;-49
2023/10/01 05:48:18;;;;;;;4.30;2.70;;;19.50;65.00;;;;;;5044113;28;20466;-49
2023/10/01 05:50:47;;;;;;;5.00;3.20;;;19.50;64.90;;;;;;5044451;28;21084;-50
2023/10/01 05:53:18;;;;;;;4.30;3.57;;;19.50;65.00;;;;;;5045416;28;20844;-49
2023/10/01 05:55:47;;;;;;;3.60;2.90;;;19.50;64.90;;;;;;5042246;28;20538;-50
2023/10/01 05:58:21;;;;;;;3.93;3.03;;;19.50;64.90;;;;;;5044467;28;20474;-49
2023/10/01 06:01:05;;;;;;;3.60;2.50;;;19.50;64.90;;;;;;5043739;28;20823;-48
2023/10/01 06:03:40;;;;;;;2.83;2.43;;;19.40;64.90;;;;;;5043389;28;20447;-49
2023/10/01 06:06:10;;;;;;;4.63;3.50;;;19.40;64.90;;;;;;5042048;28;20818;-49
2023/10/01 06:08:50;;;;;;;4.40;3.03;;;19.40;64.90;;;;;;5044796;28;20883;-50
2023/10/01 06:11:38;;;;;;;3.80;3.00;;;19.40;65.00;;;;;;5046773;28;20434;-49
2023/10/01 06:14:06;;;;;;;2.90;2.60;;;19.40;64.90;;;;;;5032099;28;21005;-49
2023/10/01 06:16:37;;;;;;;3.50;2.90;;;19.40;64.90;;;;;;5033066;28;20456;-51
2023/10/01 06:19:11;;;;;;;4.93;2.60;;;19.40;64.90;;;;;;5033954;28;20455;-50
2023/10/01 06:21:41;;;;;;;3.63;3.00;;;19.40;65.00;;;;;;5037828;28;20482;-49
2023/10/01 06:24:10;;;;;;;4.00;2.90;;;19.40;65.00;;;;;;5030884;28;20526;-50
2023/10/01 06:26:42;;;;;;;3.17;2.50;;;19.40;65.00;;;;;;5032908;28;20539;-50
2023/10/01 06:29:13;;;;;;;4.70;3.00;;;19.40;65.10;;;;;;5030910;28;20443;-50
2023/10/01 06:31:52;;;;;;;3.43;3.00;;;19.40;65.20;;;;;;5032967;28;20551;-49
2023/10/01 06:34:26;;;;;;;5.70;3.30;;;19.40;65.20;;;;;;5039829;28;20951;-49
2023/10/01 06:36:57;;;;;;;4.20;2.60;;;19.40;65.20;;;;;;5040716;28;20481;-49
2023/10/01 06:39:27;;;;;;;4.03;3.07;;;19.30;65.10;;;;;;5043101;28;20540;-48
2023/10/01 06:42:18;;;;;;;3.33;2.70;;;19.30;65.00;;;;;;5045449;28;20458;-50
2023/10/01 06:44:45;;;;;;;4.00;2.47;;;19.30;65.10;;;;;;5036748;28;20459;-49
2023/10/01 06:47:15;;;;;;;3.60;2.90;;;19.30;65.20;;;;;;5042621;28;20460;-49
2023/10/01 06:49:59;;;;;;;3.33;3.03;;;19.30;65.20;;;;;;5042953;28;20461;-50
2023/10/01 06:52:29;;;;;;;4.00;2.77;;;19.40;65.40;;;;;;5039645;28;20475;-49
2023/10/01 06:54:57;;;;;;;3.17;2.20;;;19.40;65.40;;;;;;5042576;28;20502;-48
2023/10/01 06:57:28;;;;;;;3.50;2.67;;;19.30;65.30;;;;;;5044219;28;20448;-49
2023/10/01 06:59:57;;;;;;;2.70;2.23;;;19.30;65.30;;;;;;5042524;28;20442;-49
2023/10/01 07:02:25;;;;;;;4.50;2.60;;;19.30;65.40;;;;;;5045576;28;21043;-49
2023/10/01 07:04:58;;;;;;;3.30;2.80;;;19.30;65.30;;;;;;5049351;28;20546;-49
2023/10/01 07:07:42;;;;;;;3.90;2.83;;;19.30;65.40;;;;;;5046416;28;20529;-49
2023/10/01 07:10:11;;;;;;;5.07;2.93;;;19.30;65.30;;;;;;5049576;28;20438;-49
2023/10/01 07:12:53;;;;;;;4.50;2.90;;;19.30;66.70;;;;;;5048560;28;20516;-50
2023/10/01 07:15:25;;;;;;;3.97;2.80;;;19.30;65.40;;;;;;5044802;28;20536;-49
2023/10/01 07:17:54;;;;;;;3.57;2.97;;;19.30;65.50;;;;;;5046778;28;20608;-49
2023/10/01 07:20:24;;;;;;;4.53;3.43;;;19.30;65.50;;;;;;5046816;28;20435;-50
2023/10/01 07:22:57;;;;;;;5.10;2.97;;;19.30;65.60;;;;;;5048861;28;20468;-49
2023/10/01 07:25:39;;;;;;;3.50;2.60;;;19.30;65.60;;;;;;5046979;28;20831;-49
2023/10/01 07:28:12;;;;;;;3.77;2.80;;;19.30;65.70;;;;;;5018252;28;20486;-51
2023/10/01 07:30:51;;;;;;;3.97;2.87;;;19.30;66.00;;;;;;5046196;28;20829;-50
2023/10/01 07:33:20;;;;;;;4.30;3.17;;;19.30;66.00;;;;;;5048063;28;20467;-49
2023/10/01 07:35:59;;;;;;;3.83;3.00;;;19.30;66.00;;;;;;5043559;28;20499;-49
2023/10/01 07:38:30;;;;;;;3.87;3.10;;;19.30;65.90;;;;;;5014196;28;21349;-50
2023/10/01 07:41:07;;;;;;;8.50;5.60;;;19.30;66.10;;;;;;5038167;28;21307;-49
2023/10/01 07:43:35;;;;;;;10.83;7.20;;;19.30;66.20;;;;;;5033083;28;20803;-49
2023/10/01 07:46:07;;;;;;;13.17;6.73;;;19.30;66.60;;;;;;5047653;28;20490;-49
2023/10/01 07:48:38;;;;;;;11.63;6.20;;;19.20;67.30;;;;;;5054309;28;20461;-49
2023/10/01 07:51:22;;;;;;;9.97;6.20;;;19.20;68.10;;;;;;5045876;28;20433;-51
2023/10/01 07:53:52;;;;;;;11.30;5.63;;;19.20;67.80;;;;;;5051137;28;20450;-48
2023/10/01 07:56:22;;;;;;;9.33;5.93;;;19.20;67.60;;;;;;5053127;28;20431;-50
2023/10/01 07:58:57;;;;;;;9.00;6.00;;;19.20;67.50;;;;;;5049323;28;20917;-50
2023/10/01 08:01:37;;;;;;;8.40;5.00;;;19.20;67.30;;;;;;5054690;28;20481;-49
2023/10/01 08:04:06;;;;;;;9.87;6.43;;;19.20;67.10;;;;;;5057612;28;20466;-48
2023/10/01 08:06:43;;;;;;;7.60;4.90;;;19.30;67.20;;;;;;5043647;28;20552;-51
2023/10/01 08:09:13;;;;;;;8.87;5.50;;;19.30;67.00;;;;;;5054235;28;20460;-52
2023/10/01 08:11:58;;;;;;;8.37;5.70;;;19.20;66.90;;;;;;5056402;28;20492;-50
2023/10/01 08:14:33;;;;;;;8.70;5.30;;;19.30;67.00;;;;;;5045059;28;20503;-50
2023/10/01 08:17:00;;;;;;;7.60;5.50;;;19.30;67.00;;;;;;5056699;28;20461;-50
2023/10/01 08:19:44;;;;;;;7.97;5.27;;;19.30;67.00;;;;;;5056966;28;20857;-48
2023/10/01 08:22:14;;;;;;;7.17;4.90;;;19.30;67.00;;;;;;5044692;28;20551;-49
2023/10/01 08:24:49;;;;;;;7.53;5.03;;;19.30;66.90;;;;;;5057808;28;20451;-50
2023/10/01 08:27:29;;;;;;;10.13;5.70;;;19.30;66.90;;;;;;5048709;28;20471;-51
2023/10/01 08:30:18;;;;;;;7.23;4.57;;;19.30;66.80;;;;;;5054221;28;20453;-49
2023/10/01 08:32:49;;;;;;;6.27;4.50;;;19.30;66.90;;;;;;5045344;28;20470;-50
2023/10/01 08:35:23;;;;;;;7.03;5.23;;;19.30;66.80;;;;;;5040319;28;20475;-49
2023/10/01 08:37:59;;;;;;;7.30;5.50;;;19.30;66.80;;;;;;5042135;28;20462;-50
2023/10/01 08:40:28;;;;;;;6.53;4.23;;;19.30;66.90;;;;;;5029101;28;20439;-50
2023/10/01 08:42:58;;;;;;;7.83;4.80;;;19.30;66.70;;;;;;5057598;28;20795;-49
2023/10/01 08:45:37;;;;;;;8.00;4.80;;;19.30;66.70;;;;;;5053351;28;20451;-50
2023/10/01 08:48:08;;;;;;;7.80;4.67;;;19.30;66.70;;;;;;5017969;28;20478;-50
2023/10/01 08:50:40;;;;;;;6.03;4.40;;;19.30;66.80;;;;;;5048883;28;20832;-50
2023/10/01 08:53:12;;;;;;;7.73;5.10;;;19.30;66.80;;;;;;5050289;28;20489;-49
2023/10/01 08:56:04;;;;;;;5.83;4.90;;;19.30;68.20;;;;;;5049480;28;20470;-50
2023/10/01 08:58:48;;;;;;;7.00;4.93;;;19.30;66.70;;;;;;5052098;28;20443;-49
2023/10/01 09:01:20;;;;;;;6.47;4.20;;;19.30;66.80;;;;;;5050681;28;20481;-51
2023/10/01 09:03:49;;;;;;;7.50;4.93;;;19.30;66.60;;;;;;5056617;28;20959;-49
2023/10/01 09:09:26;;;;;;;6.20;4.60;;;19.30;66.60;;;;;;5051496;28;20446;-50
2023/10/01 09:11:58;;;;;;;3.93;3.53;;;19.30;66.60;;;;;;5051174;28;20469;-49
2023/10/01 09:14:38;;;;;;;6.20;4.70;;;19.30;66.60;;;;;;5048927;28;20559;-49
2023/10/01 09:17:24;;;;;;;6.10;4.27;;;19.30;66.60;;;;;;5036740;28;20482;-51
2023/10/01 09:19:56;;;;;;;6.30;4.93;;;19.30;66.70;;;;;;5023651;28;20835;-50
2023/10/01 09:22:40;;;;;;;7.10;4.70;;;19.30;66.60;;;;;;5031148;28;20482;-50
2023/10/01 09:25:21;;;;;;;4.93;3.83;;;19.30;66.70;;;;;;5041062;28;20507;-49
2023/10/01 09:27:57;;;;;;;7.60;4.77;;;19.30;66.70;;;;;;5042917;28;20466;-50
2023/10/01 09:30:31;;;;;;;8.80;4.83;;;19.30;66.70;;;;;;5038668;28;20448;-50
2023/10/01 09:33:04;;;;;;;5.23;4.17;;;19.30;66.60;;;;;;5043624;28;20467;-50
2023/10/01 09:35:49;;;;;;;6.37;4.30;;;19.30;66.60;;;;;;5037253;28;20476;-50
2023/10/01 09:38:19;;;;;;;8.10;4.80;;;19.40;66.80;;;;;;5040329;28;20455;-49
2023/10/01 09:40:51;;;;;;;6.73;4.83;;;19.40;66.70;;;;;;5040867;28;20435;-49
2023/10/01 09:43:24;;;;;;;8.50;5.03;;;19.40;66.90;;;;;;5038461;28;20479;-48
2023/10/01 09:45:54;;;;;;;8.93;4.33;;;19.40;66.90;;;;;;5035829;28;20503;-51
2023/10/01 09:48:33;;;;;;;5.30;3.90;;;19.40;66.80;;;;;;5043772;28;20721;-49
2023/10/01 09:51:13;;;;;;;7.17;4.70;;;19.40;66.80;;;;;;5039149;28;20442;-49
2023/10/01 09:53:48;;;;;;;7.00;4.40;;;19.30;66.80;;;;;;5028506;28;20509;-50
2023/10/01 09:59:07;;;;;;;6.43;4.53;;;19.30;66.80;;;;;;5026398;28;20575;-50
2023/10/01 10:01:37;;;;;;;6.87;4.90;;;19.30;67.00;;;;;;5037257;28;20475;-49
2023/10/01 10:04:07;;;;;;;8.60;5.33;;;19.30;66.90;;;;;;5047622;28;20467;-49
2023/10/01 10:06:38;;;;;;;7.80;5.13;;;19.40;67.20;;;;;;5045383;28;20483;-49
2023/10/01 10:09:25;;;;;;;7.30;5.07;;;19.40;67.00;;;;;;5042810;28;20542;-49
2023/10/01 10:11:55;;;;;;;8.50;5.93;;;19.40;67.20;;;;;;5035184;28;20525;-50
2023/10/01 10:14:45;;;;;;;6.90;5.10;;;19.40;67.50;;;;;;5043183;28;20489;-49
2023/10/01 10:17:19;;;;;;;6.70;4.40;;;19.40;68.80;;;;;;5036590;28;20509;-49
2023/10/01 10:20:25;;;;;;;7.00;4.90;;;19.40;67.40;;;;;;5043078;28;20960;-50
2023/10/01 10:23:13;;;;;;;6.40;4.43;;;19.40;67.40;;;;;;5027635;28;20459;-50
2023/10/01 10:25:43;;;;;;;8.43;4.63;;;19.30;67.30;;;;;;5017390;28;20496;-49
2023/10/01 10:28:24;;;;;;;8.03;4.00;;;19.30;67.30;;;;;;5005332;28;20564;-50
2023/10/01 10:31:29;;;;;;;8.33;5.00;;;19.30;67.30;;;;;;5013317;28;20458;-49
2023/10/01 10:34:25;;;;;;;5.33;3.80;;;19.30;67.30;;;;;;5047396;28;20461;-50
2023/10/01 10:36:55;;;;;;;6.77;4.00;;;19.30;67.30;;;;;;5049031;28;20879;-50
2023/10/01 10:40:04;;;;;;;9.20;4.37;;;19.30;67.30;;;;;;5058832;28;20438;-50
2023/10/01 10:42:33;;;;;;;6.17;4.33;;;19.30;67.40;;;;;;5052505;28;21262;-51
2023/10/01 10:45:22;;;;;;;6.73;4.50;;;19.30;67.30;;;;;;5043506;28;20812;-51
2023/10/01 10:47:58;;;;;;;6.07;3.80;;;19.30;67.40;;;;;;5024200;28;21253;-49
2023/10/01 10:50:44;;;;;;;5.67;4.27;;;19.30;67.30;;;;;;5017873;28;20458;-51
2023/10/01 10:53:15;;;;;;;7.90;4.27;;;19.30;67.30;;;;;;5036924;28;20457;-50
2023/10/01 10:55:53;;;;;;;5.90;4.67;;;19.30;67.30;;;;;;5042234;28;20464;-49
2023/10/01 10:58:24;;;;;;;8.33;5.17;;;19.30;67.30;;;;;;5043776;28;20753;-50
2023/10/01 11:00:56;;;;;;;7.50;4.13;;;19.30;67.30;;;;;;5043693;28;20465;-50
2023/10/01 11:03:40;;;;;;;6.83;4.20;;;19.30;67.30;;;;;;5050586;28;21003;-49
2023/10/01 11:06:21;;;;;;;6.70;4.50;;;19.30;67.30;;;;;;5050996;28;20529;-49
2023/10/01 11:08:53;;;;;;;6.40;4.77;;;19.30;67.30;;;;;;5056309;28;20454;-49
2023/10/01 11:11:25;;;;;;;7.23;4.40;;;19.30;67.30;;;;;;5045695;28;20818;-49
2023/10/01 11:14:16;;;;;;;8.80;5.17;;;19.30;67.30;;;;;;5048584;28;20512;-49
2023/10/01 11:16:48;;;;;;;7.53;4.50;;;19.30;67.30;;;;;;5034708;28;20497;-51
2023/10/01 11:19:18;;;;;;;6.40;4.00;;;19.30;67.30;;;;;;5037803;28;20439;-49
2023/10/01 11:21:54;;;;;;;7.70;4.60;;;19.30;67.30;;;;;;5031753;28;20474;-51
2023/10/01 11:24:31;;;;;;;6.60;4.70;;;19.40;67.40;;;;;;5049791;28;20462;-49
2023/10/01 11:27:17;;;;;;;12.07;5.50;;;19.40;67.30;;;;;;5046939;28;20463;-49
2023/10/01 11:29:58;;;;;;;7.60;5.30;;;19.40;67.20;;;;;;5046861;28;20528;-49
2023/10/01 11:33:01;;;;;;;9.00;5.60;;;19.40;66.90;;;;;;5050822;28;20998;-50
2023/10/01 11:35:33;;;;;;;9.73;5.60;;;19.50;66.80;;;;;;5041290;28;20892;-49
2023/10/01 11:38:10;;;;;;;9.97;6.33;;;19.50;66.90;;;;;;5055592;28;20461;-50
2023/10/01 11:43:32;;;;;;;7.00;4.70;;;19.50;66.80;;;;;;5048472;28;20875;-49
2023/10/01 11:46:23;;;;;;;8.00;5.30;;;19.50;66.90;;;;;;5050374;28;20450;-48
2023/10/01 11:48:59;;;;;;;8.20;5.60;;;19.50;66.80;;;;;;5054038;28;20554;-51
2023/10/01 11:51:42;;;;;;;6.63;5.13;;;19.50;66.80;;;;;;5040764;28;20458;-51
2023/10/01 11:54:11;;;;;;;6.93;5.13;;;19.50;66.70;;;;;;5040511;28;20466;-50
2023/10/01 11:56:45;;;;;;;7.77;4.97;;;19.50;66.70;;;;;;5040816;28;20475;-50
2023/10/01 11:59:22;;;;;;;9.03;5.10;;;19.50;66.60;;;;;;5039857;28;20470;-51
2023/10/01 12:01:53;;;;;;;7.67;5.20;;;19.60;66.70;;;;;;5056051;28;20986;-50
2023/10/01 12:04:43;;;;;;;7.33;5.00;;;19.60;66.60;;;;;;5052071;28;20918;-49
2023/10/01 12:07:17;;;;;;;7.73;5.00;;;19.60;66.60;;;;;;5047117;28;20466;-50
2023/10/01 12:09:48;;;;;;;8.83;5.17;;;19.60;66.60;;;;;;5058570;28;20446;-50
2023/10/01 12:12:18;;;;;;;9.93;5.53;;;19.60;66.60;;;;;;5010257;28;20468;-50
2023/10/01 12:14:53;;;;;;;6.20;5.10;;;19.60;66.50;;;;;;5018039;28;20466;-49
2023/10/01 12:17:27;;;;;;;7.50;4.67;;;19.60;66.60;;;;;;5028227;28;20605;-49
2023/10/01 12:19:59;;;;;;;6.30;4.60;;;19.60;66.60;;;;;;5040909;28;20450;-52
2023/10/01 12:22:28;;;;;;;15.30;5.30;;;19.70;66.50;;;;;;5025339;28;20807;-51
2023/10/01 12:24:58;;;;;;;7.30;5.00;;;19.70;66.70;;;;;;5016834;28;21245;-49
2023/10/01 12:27:40;;;;;;;7.27;5.53;;;19.70;66.30;;;;;;5015998;28;20533;-49
2023/10/01 12:30:27;;;;;;;8.63;5.40;;;19.70;66.30;;;;;;5017753;28;21473;-49
2023/10/01 12:33:02;;;;;;;8.00;4.87;;;19.80;66.30;;;;;;5018289;28;20503;-49
2023/10/01 12:35:34;;;;;;;8.43;5.57;;;19.80;66.20;;;;;;5018677;28;20470;-49
2023/10/01 12:38:24;;;;;;;8.23;5.90;;;19.80;66.10;;;;;;5016604;28;20484;-50
2023/10/01 12:40:54;;;;;;;9.77;6.87;;;19.80;66.10;;;;;;5017930;28;20448;-51
2023/10/01 12:43:40;;;;;;;7.57;5.23;;;19.80;66.10;;;;;;5018841;28;20572;-50
2023/10/01 12:46:18;;;;;;;8.67;4.83;;;19.80;66.20;;;;;;5023917;28;20557;-49
2023/10/01 12:51:37;;;;;;;9.53;6.37;;;19.80;66.80;;;;;;5016423;28;21008;-50
2023/10/01 12:54:06;;;;;;;10.40;6.47;;;19.80;66.30;;;;;;5026501;28;20827;-49
2023/10/01 12:56:48;;;;;;;8.17;5.90;;;19.80;66.30;;;;;;5026207;28;20491;-49
2023/10/01 12:59:19;;;;;;;7.40;5.60;;;19.80;66.30;;;;;;5021108;28;20458;-50
2023/10/01 13:01:52;;;;;;;9.17;6.37;;;19.80;66.30;;;;;;5018713;28;20456;-50
2023/10/01 13:04:23;;;;;;;9.40;5.60;;;19.80;66.40;;;;;;5019102;28;20452;-49
2023/10/01 13:07:01;;;;;;;8.90;5.67;;;19.80;66.30;;;;;;5029190;28;20455;-49
2023/10/01 13:12:15;;;;;;;9.13;5.93;;;19.80;66.30;;;;;;5041340;28;20492;-50
2023/10/01 13:14:43;;;;;;;8.53;6.20;;;19.80;66.40;;;;;;5039004;28;20594;-49
2023/10/01 13:17:20;;;;;;;8.83;5.97;;;19.80;66.30;;;;;;5039985;28;20475;-51
2023/10/01 13:19:49;;;;;;;6.27;4.77;;;19.80;66.30;;;;;;5043882;28;20510;-51
2023/10/01 13:22:19;;;;;;;8.47;5.07;;;19.80;65.90;;;;;;5039647;28;20464;-50
2023/10/01 13:24:53;;;;;;;9.80;6.27;;;19.80;66.30;;;;;;5035227;28;20456;-49
2023/10/01 13:27:22;;;;;;;8.90;5.13;;;19.90;66.30;;;;;;5022190;28;20554;-50
2023/10/01 13:30:14;;;;;;;8.67;5.87;;;19.90;66.30;;;;;;5018477;28;20476;-49
2023/10/01 13:32:57;;;;;;;7.87;6.03;;;19.90;66.30;;;;;;5020282;28;20470;-48
2023/10/01 13:35:35;;;;;;;8.60;4.80;;;19.90;66.20;;;;;;5022934;28;20824;-49
2023/10/01 13:38:26;;;;;;;7.40;6.10;;;19.90;66.20;;;;;;5036029;28;20510;-49
2023/10/01 14:08:45;;;;;;;7.93;4.93;;;19.90;66.50;;;;;;5040056;28;20853;-50
2023/10/01 14:11:26;;;;;;;7.00;5.43;;;19.90;66.50;;;;;;5042905;28;20430;-49
2023/10/01 14:13:54;;;;;;;7.90;5.43;;;19.90;66.50;;;;;;5046307;28;20482;-51